createdAt,value
2022-10-17T00:02:03.429Z,99310.38
2022-10-17T00:04:08.479Z,99320.97
2022-10-17T00:06:13.845Z,99313.88
2022-10-17T00:08:19.041Z,99314.84
2022-10-17T00:10:23.073Z,99304.22
2022-10-17T00:12:26.735Z,99315.69
2022-10-17T00:14:30.284Z,99292.81
2022-10-17T00:16:37.223Z,99297.28
2022-10-17T00:18:40.968Z,99307.88
2022-10-17T00:20:45.917Z,99302.59
2022-10-17T00:22:49.534Z,99307.75
2022-10-17T00:24:53.126Z,99309.41
2022-10-17T00:26:56.899Z,99310.94
2022-10-17T00:29:00.644Z,99311.78
2022-10-17T00:31:06.810Z,99319.31
2022-10-17T00:33:10.273Z,99312.22
2022-10-17T00:35:14.399Z,99314.78
2022-10-17T00:37:19.957Z,99322.72
2022-10-17T00:39:23.570Z,99329.66
2022-10-17T00:41:30.884Z,99321.56
2022-10-17T00:43:56.877Z,99333.03
2022-10-17T00:46:00.462Z,99340.00
2022-10-17T00:48:08.698Z,99320.47
2022-10-17T00:50:13.256Z,99335.41
2022-10-17T00:52:22.880Z,99332.75
2022-10-17T00:54:32.396Z,99341.41
2022-10-17T00:56:36.133Z,99336.13
2022-10-17T00:58:40.990Z,99337.22
2022-10-17T01:00:45.220Z,99336.38
2022-10-17T01:02:49.121Z,99329.41
2022-10-17T01:04:55.906Z,99332.06
2022-10-17T01:06:59.803Z,99342.78
2022-10-17T01:09:05.189Z,99341.66
2022-10-17T01:11:20.432Z,99329.97
2022-10-17T01:13:31.719Z,99335.84
2022-10-17T01:15:48.974Z,99328.72
2022-10-17T01:18:06.080Z,99339.88
2022-10-17T01:20:47.621Z,99348.28
2022-10-17T01:23:00.483Z,99340.03
2022-10-17T01:25:25.497Z,99342.56
2022-10-17T01:27:45.421Z,99341.59
2022-10-17T01:30:03.541Z,99358.44
2022-10-17T01:32:14.257Z,99348.69
2022-10-17T01:34:23.667Z,99359.28
2022-10-17T01:36:40.055Z,99351.31
2022-10-17T01:38:50.452Z,99372.53
2022-10-17T01:41:01.997Z,99368.78
2022-10-17T01:43:10.474Z,99371.41
2022-10-17T01:45:19.685Z,99381.06
2022-10-17T01:47:29.197Z,99377.56
2022-10-17T01:49:36.575Z,99383.84
2022-10-17T01:51:44.973Z,99377.81
2022-10-17T01:53:54.307Z,99376.19
2022-10-17T01:56:02.171Z,99397.38
2022-10-17T01:58:09.682Z,99388.56
2022-10-17T02:00:18.122Z,99390.25
2022-10-17T02:02:22.940Z,99390.25
2022-10-17T02:04:28.243Z,99386.78
2022-10-17T02:06:36.623Z,99385.09
2022-10-17T02:08:47.318Z,99382.44
2022-10-17T02:10:59.036Z,99384.13
2022-10-17T02:13:10.842Z,99370.59
2022-10-17T02:15:37.169Z,99372.28
2022-10-17T02:17:49.870Z,99394.16
2022-10-17T02:20:09.749Z,99392.22
2022-10-17T02:22:26.578Z,99390.25
2022-10-17T02:24:38.146Z,99376.31
2022-10-17T02:26:49.517Z,99382.59
2022-10-17T02:29:04.604Z,99389.00
2022-10-17T02:31:15.114Z,99390.13
2022-10-17T02:33:24.777Z,99379.50
2022-10-17T02:35:34.311Z,99383.13
2022-10-17T02:37:39.530Z,99396.13
2022-10-17T02:39:44.405Z,99393.34
2022-10-17T02:41:50.898Z,99373.81
2022-10-17T02:43:57.684Z,99379.13
2022-10-17T02:46:03.986Z,99382.75
2022-10-17T02:48:11.916Z,99372.13
2022-10-17T02:50:16.214Z,99378.13
2022-10-17T02:52:29.137Z,99373.69
2022-10-17T02:54:40.209Z,99377.28
2022-10-17T02:56:50.478Z,99379.94
2022-10-17T02:58:57.509Z,99371.03
2022-10-17T03:01:02.190Z,99376.19
2022-10-17T03:03:20.632Z,99385.94
2022-10-17T03:05:26.726Z,99366.41
2022-10-17T03:07:31.965Z,99377.72
2022-10-17T03:09:35.888Z,99372.44
2022-10-17T03:11:40.384Z,99379.38
2022-10-17T03:13:45.068Z,99386.50
2022-10-17T03:15:48.805Z,99382.19
2022-10-17T03:17:52.461Z,99387.47
2022-10-17T03:19:55.964Z,99410.50
2022-10-17T03:21:59.224Z,99406.31
2022-10-17T03:24:03.944Z,99421.63
2022-10-17T03:26:08.314Z,99408.53
2022-10-17T03:28:13.274Z,99389.44
2022-10-17T03:30:17.643Z,99397.50
2022-10-17T03:32:21.047Z,99410.88
2022-10-17T03:34:24.643Z,99409.22
2022-10-17T03:36:28.211Z,99433.22
2022-10-17T03:38:31.935Z,99446.56
2022-10-17T03:40:36.876Z,99412.13
2022-10-17T03:42:40.586Z,99429.97
2022-10-17T03:44:44.262Z,99414.09
2022-10-17T03:46:47.469Z,99429.25
2022-10-17T03:48:51.325Z,99423.97
2022-10-17T03:50:59.274Z,99425.91
2022-10-17T03:53:02.933Z,99437.34
2022-10-17T03:55:06.989Z,99441.09
2022-10-17T03:57:11.712Z,99416.28
2022-10-17T03:59:16.153Z,99422.31
2022-10-17T04:01:26.131Z,99430.13
2022-10-17T04:03:29.411Z,99439.84
2022-10-17T04:05:32.728Z,99446.84
2022-10-17T04:07:37.507Z,99437.22
2022-10-17T04:09:41.283Z,99424.97
2022-10-17T04:11:48.868Z,99440.00
2022-10-17T04:13:56.625Z,99446.25
2022-10-17T04:16:02.758Z,99438.44
2022-10-17T04:18:06.588Z,99454.34
2022-10-17T04:20:11.509Z,99438.44
2022-10-17T04:22:15.259Z,99457.00
2022-10-17T04:24:18.637Z,99471.22
2022-10-17T04:26:34.098Z,99466.03
2022-10-17T04:30:49.015Z,99481.25
2022-10-17T04:32:53.359Z,99481.38
2022-10-17T04:34:58.333Z,99475.13
2022-10-17T04:37:03.986Z,99476.91
2022-10-17T04:39:07.836Z,99491.97
2022-10-17T04:41:14.960Z,99504.25
2022-10-17T04:43:18.703Z,99495.59
2022-10-17T04:45:22.075Z,99511.34
2022-10-17T04:47:31.262Z,99529.06
2022-10-17T04:49:34.705Z,99521.13
2022-10-17T04:51:45.119Z,99546.75
2022-10-17T04:53:56.085Z,99540.78
2022-10-17T04:55:59.406Z,99541.84
2022-10-17T04:58:02.695Z,99560.38
2022-10-17T05:02:38.662Z,99571.25
2022-10-17T05:04:41.976Z,99564.25
2022-10-17T05:06:46.387Z,99570.38
2022-10-17T05:09:08.166Z,99566.91
2022-10-17T05:11:18.156Z,99573.16
2022-10-17T05:13:21.551Z,99566.31
2022-10-17T05:15:24.858Z,99556.31
2022-10-17T05:17:30.186Z,99559.78
2022-10-17T05:19:34.784Z,99565.09
2022-10-17T05:21:38.590Z,99588.09
2022-10-17T05:23:42.598Z,99571.38
2022-10-17T05:25:45.850Z,99583.88
2022-10-17T05:27:49.269Z,99583.75
2022-10-17T05:29:54.088Z,99598.97
2022-10-17T05:32:03.397Z,99601.75
2022-10-17T05:34:09.006Z,99595.59
2022-10-17T05:36:16.270Z,99597.25
2022-10-17T05:38:19.870Z,99597.25
2022-10-17T05:40:23.848Z,99620.16
2022-10-17T05:42:29.645Z,99613.88
2022-10-17T05:44:34.602Z,99619.28
2022-10-17T05:46:37.935Z,99614.97
2022-10-17T05:48:41.205Z,99623.75
2022-10-17T05:50:44.812Z,99630.00
2022-10-17T05:52:55.690Z,99639.78
2022-10-17T05:54:59.250Z,99634.34
2022-10-17T05:57:03.429Z,99643.72
2022-10-17T05:59:08.644Z,99676.25
2022-10-17T06:01:37.659Z,99647.94
2022-10-17T06:03:41.311Z,99686.47
2022-10-17T06:05:45.448Z,99670.56
2022-10-17T06:07:50.186Z,99668.75
2022-10-17T06:09:55.172Z,99666.09
2022-10-17T06:11:58.586Z,99671.28
2022-10-17T06:14:02.189Z,99709.22
2022-10-17T06:16:07.007Z,99691.63
2022-10-17T06:18:10.752Z,99684.66
2022-10-17T06:20:14.199Z,99705.84
2022-10-17T06:22:17.577Z,99698.03
2022-10-17T06:24:21.679Z,99714.88
2022-10-17T06:26:29.093Z,99700.78
2022-10-17T06:28:32.823Z,99726.22
2022-10-17T06:30:36.254Z,99721.88
2022-10-17T06:32:39.951Z,99721.97
2022-10-17T06:34:43.645Z,99754.72
2022-10-17T06:36:47.751Z,99732.81
2022-10-17T06:38:51.415Z,99752.06
2022-10-17T06:41:08.393Z,99740.50
2022-10-17T06:43:13.171Z,99754.63
2022-10-17T06:45:34.230Z,99745.81
2022-10-17T06:47:50.028Z,99752.94
2022-10-17T06:50:12.068Z,99762.66
2022-10-17T06:52:20.775Z,99763.66
2022-10-17T06:54:43.926Z,99747.75
2022-10-17T06:57:06.233Z,99759.31
2022-10-17T06:59:38.470Z,99775.34
2022-10-17T07:02:02.631Z,99783.28
2022-10-17T07:04:07.217Z,99798.31
2022-10-17T07:06:11.923Z,99805.56
2022-10-17T07:08:17.490Z,99804.84
2022-10-17T07:10:20.771Z,99808.34
2022-10-17T07:12:24.468Z,99823.38
2022-10-17T07:14:32.296Z,99829.41
2022-10-17T07:16:37.625Z,99807.25
2022-10-17T07:18:56.658Z,99819.50
2022-10-17T07:21:01.335Z,99844.91
2022-10-17T07:23:05.067Z,99854.44
2022-10-17T07:25:10.303Z,99858.53
2022-10-17T07:27:20.359Z,99858.41
2022-10-17T07:29:24.264Z,99860.00
2022-10-17T07:31:48.963Z,99880.22
2022-10-17T07:33:53.117Z,99856.25
2022-10-17T07:35:59.488Z,99877.44
2022-10-17T07:38:03.143Z,99873.09
2022-10-17T07:40:09.248Z,99879.38
2022-10-17T07:42:14.812Z,99890.69
2022-10-17T07:44:18.502Z,99909.25
2022-10-17T07:46:25.844Z,99900.34
2022-10-17T07:48:31.362Z,99925.97
2022-10-17T07:50:35.135Z,99922.38
2022-10-17T07:52:38.576Z,99929.38
2022-10-17T07:54:42.326Z,99925.63
2022-10-17T07:56:50.787Z,99950.06
2022-10-17T07:58:55.166Z,99957.91
2022-10-17T08:03:12.190Z,99946.19
2022-10-17T08:05:17.346Z,99972.47
2022-10-17T08:07:24.356Z,99975.13
2022-10-17T08:09:28.977Z,99966.19
2022-10-17T08:11:33.132Z,99987.19
2022-10-17T08:13:37.641Z,99982.56
2022-10-17T08:15:41.165Z,99995.84
2022-10-17T08:17:44.774Z,99998.22
2022-10-17T08:19:48.236Z,100027.31
2022-10-17T08:21:54.755Z,100028.13
2022-10-17T08:23:58.471Z,100024.41
2022-10-17T08:26:02.964Z,100025.09
2022-10-17T08:30:12.525Z,100035.13
2022-10-17T08:32:15.972Z,100058.50
2022-10-17T08:34:19.823Z,100063.06
2022-10-17T08:36:23.316Z,100062.31
2022-10-17T08:38:33.260Z,100065.56
2022-10-17T08:40:42.922Z,100052.03
2022-10-17T08:43:17.068Z,100075.75
2022-10-17T08:45:30.923Z,100078.84
2022-10-17T08:47:38.755Z,100085.19
2022-10-17T08:49:47.996Z,100092.28
2022-10-17T08:51:58.288Z,100093.94
2022-10-17T08:54:08.091Z,100108.84
2022-10-17T08:56:24.877Z,100120.16
2022-10-17T08:58:40.508Z,100130.28
2022-10-17T09:00:51.612Z,100132.66
2022-10-17T09:03:15.030Z,100148.56
2022-10-17T09:05:32.363Z,100152.25
2022-10-17T09:08:02.758Z,100148.94
2022-10-17T09:10:17.566Z,100151.22
2022-10-17T09:12:27.001Z,100166.09
2022-10-17T09:14:58.354Z,100181.16
2022-10-17T09:17:15.378Z,100169.16
2022-10-17T09:19:24.452Z,100169.63
2022-10-17T09:21:35.500Z,100161.38
2022-10-17T09:23:48.833Z,100189.66
2022-10-17T09:25:54.875Z,100190.63
2022-10-17T09:28:08.110Z,100186.03
2022-10-17T09:30:40.438Z,100188.44
2022-10-17T09:32:47.856Z,100207.19
2022-10-17T09:34:52.921Z,100204.16
2022-10-17T09:36:59.149Z,100223.34
2022-10-17T09:39:05.590Z,100227.06
2022-10-17T09:41:44.388Z,100253.84
2022-10-17T09:43:42.374Z,100252.47
2022-10-17T09:46:00.151Z,100249.13
2022-10-17T09:48:11.694Z,100272.94
2022-10-17T09:50:23.153Z,100272.38
2022-10-17T09:52:32.217Z,100282.53
2022-10-17T09:54:44.082Z,100278.88
2022-10-17T09:57:04.318Z,100293.53
2022-10-17T09:59:12.914Z,100289.75
2022-10-17T10:01:24.016Z,100316.63
2022-10-17T10:03:28.843Z,100317.31
2022-10-17T10:05:32.641Z,100323.84
2022-10-17T10:07:39.217Z,100322.25
2022-10-17T10:09:48.836Z,100344.91
2022-10-17T10:11:55.665Z,100334.00
2022-10-17T10:14:13.714Z,100330.22
2022-10-17T10:16:24.722Z,100341.34
2022-10-17T10:18:32.165Z,100355.72
2022-10-17T10:20:38.165Z,100373.69
2022-10-17T10:22:42.868Z,100364.28
2022-10-17T10:24:47.269Z,100383.56
2022-10-17T10:26:53.954Z,100369.38
2022-10-17T10:29:02.575Z,100387.75
2022-10-17T10:31:09.326Z,100382.94
2022-10-17T10:33:14.186Z,100384.22
2022-10-17T10:35:23.664Z,100405.00
2022-10-17T10:37:33.125Z,100419.28
2022-10-17T10:39:44.801Z,100408.66
2022-10-17T10:41:49.831Z,100420.84
2022-10-17T10:43:56.139Z,100438.13
2022-10-17T10:46:02.753Z,100440.66
2022-10-17T10:48:23.027Z,100450.22
2022-10-17T10:50:33.257Z,100458.28
2022-10-17T10:52:45.214Z,100462.22
2022-10-17T10:54:56.579Z,100479.22
2022-10-17T10:57:04.695Z,100495.75
2022-10-17T10:59:19.480Z,100492.88
2022-10-17T11:01:31.503Z,100476.75
2022-10-17T11:03:43.098Z,100496.97
2022-10-17T11:05:51.375Z,100511.31
2022-10-17T11:08:06.239Z,100511.22
2022-10-17T11:10:16.664Z,100507.19
2022-10-17T11:12:26.771Z,100517.63
2022-10-17T11:14:41.267Z,100530.22
2022-10-17T11:16:55.125Z,100545.03
2022-10-17T11:19:06.470Z,100539.66
2022-10-17T11:21:17.252Z,100539.06
2022-10-17T11:23:26.125Z,100542.59
2022-10-17T11:25:35.473Z,100561.47
2022-10-17T11:27:39.297Z,100549.03
2022-10-17T11:29:46.444Z,100568.38
2022-10-17T11:31:57.025Z,100550.00
2022-10-17T11:34:03.460Z,100568.91
2022-10-17T11:36:10.377Z,100569.59
2022-10-17T11:38:22.738Z,100583.66
2022-10-17T11:40:31.561Z,100595.41
2022-10-17T11:42:42.207Z,100584.16
2022-10-17T11:44:46.678Z,100586.13
2022-10-17T11:46:56.753Z,100593.50
2022-10-17T11:49:09.426Z,100615.22
2022-10-17T11:53:49.610Z,100632.91
2022-10-17T11:55:56.040Z,100618.41
2022-10-17T11:58:23.673Z,100622.28
2022-10-17T12:00:41.735Z,100623.25
2022-10-17T12:03:00.911Z,100639.97
2022-10-17T12:05:15.727Z,100639.13
2022-10-17T12:07:29.915Z,100642.03
2022-10-17T12:09:41.721Z,100634.03
2022-10-17T12:11:54.637Z,100641.91
2022-10-17T12:14:00.081Z,100639.13
2022-10-17T12:16:51.176Z,100646.13
2022-10-17T12:19:22.437Z,100649.75
2022-10-17T12:21:29.731Z,100649.16
2022-10-17T12:23:36.620Z,100634.28
2022-10-17T12:25:53.702Z,100651.38
2022-10-17T12:28:17.452Z,100624.72
2022-10-17T12:30:24.785Z,100630.91
2022-10-17T12:32:36.843Z,100630.19
2022-10-17T12:34:57.464Z,100629.59
2022-10-17T12:37:01.115Z,100642.16
2022-10-17T12:39:52.777Z,100640.50
2022-10-17T12:41:56.589Z,100630.53
2022-10-17T12:44:00.282Z,100627.88
2022-10-17T12:46:05.634Z,100635.75
2022-10-17T12:48:11.464Z,100643.72
2022-10-17T12:51:30.714Z,100636.72
2022-10-17T12:53:37.716Z,100642.63
2022-10-17T12:55:41.633Z,100641.69
2022-10-17T12:57:58.960Z,100655.81
2022-10-17T13:00:06.751Z,100640.84
2022-10-17T13:02:22.533Z,100655.94
2022-10-17T13:04:28.070Z,100665.66
2022-10-17T13:06:38.186Z,100670.97
2022-10-17T13:08:50.915Z,100677.25
2022-10-17T13:10:59.166Z,100670.97
2022-10-17T13:13:15.682Z,100673.75
2022-10-17T13:15:21.629Z,100679.09
2022-10-17T13:17:28.562Z,100681.50
2022-10-17T13:19:41.349Z,100674.34
2022-10-17T13:21:53.796Z,100682.22
2022-10-17T13:23:58.224Z,100691.19
2022-10-17T13:26:07.823Z,100691.19
2022-10-17T13:28:15.751Z,100703.63
2022-10-17T13:30:31.034Z,100687.56
2022-10-17T13:32:39.550Z,100703.41
2022-10-17T13:34:43.811Z,100706.78
2022-10-17T13:36:49.591Z,100709.31
2022-10-17T13:38:54.988Z,100709.22
2022-10-17T13:41:10.890Z,100710.91
2022-10-17T13:43:24.583Z,100715.25
2022-10-17T13:45:32.336Z,100723.25
2022-10-17T13:47:40.929Z,100733.66
2022-10-17T13:49:45.765Z,100742.50
2022-10-17T13:51:52.052Z,100754.75
2022-10-17T13:53:57.375Z,100752.78
2022-10-17T13:56:23.218Z,100756.19
2022-10-17T13:58:28.819Z,100752.78
2022-10-17T14:00:33.061Z,100771.31
2022-10-17T14:02:38.080Z,100765.97
2022-10-17T14:05:11.766Z,100775.66
2022-10-17T14:07:08.726Z,100770.22
2022-10-17T14:09:23.704Z,100764.06
2022-10-17T14:11:36.658Z,100772.75
2022-10-17T14:13:41.029Z,100788.63
2022-10-17T14:15:48.442Z,100785.94
2022-10-17T14:17:58.494Z,100784.03
2022-10-17T14:20:34.101Z,100783.16
2022-10-17T14:22:30.849Z,100791.28
2022-10-17T14:24:37.075Z,100802.81
2022-10-17T14:26:50.232Z,100810.91
2022-10-17T14:29:06.869Z,100810.78
2022-10-17T14:31:31.992Z,100817.22
2022-10-17T14:33:39.952Z,100823.38
2022-10-17T14:35:51.733Z,100819.88
2022-10-17T14:38:02.414Z,100830.28
2022-10-17T14:40:09.412Z,100833.91
2022-10-17T14:42:21.921Z,100836.56
2022-10-17T14:44:32.580Z,100850.75
2022-10-17T14:46:39.154Z,100876.53
2022-10-17T14:48:44.642Z,100886.34
2022-10-17T14:51:10.226Z,100907.66
2022-10-17T14:53:22.891Z,100917.47
2022-10-17T14:55:30.378Z,100918.19
2022-10-17T14:57:45.330Z,100929.59
2022-10-17T14:59:54.271Z,100933.22
2022-10-17T15:01:58.713Z,100936.84
2022-10-17T15:04:03.374Z,100944.84
2022-10-17T15:06:19.082Z,100949.22
2022-10-17T15:08:24.808Z,100947.50
2022-10-17T15:10:36.931Z,100953.66
2022-10-17T15:12:51.009Z,100960.13
2022-10-17T15:15:03.059Z,100962.03
2022-10-17T15:17:11.159Z,100984.41
2022-10-17T15:19:15.963Z,100993.38
2022-10-17T15:21:33.744Z,100998.69
2022-10-17T15:23:42.686Z,101008.28
2022-10-17T15:25:47.992Z,101012.41
2022-10-17T15:27:51.874Z,101017.53
2022-10-17T15:29:55.715Z,101017.28
2022-10-17T15:31:59.594Z,101035.69
2022-10-17T15:34:03.578Z,101032.91
2022-10-17T15:36:18.539Z,101026.75
2022-10-17T15:38:23.530Z,101037.66
2022-10-17T15:40:30.631Z,101057.25
2022-10-17T15:42:36.556Z,101045.84
2022-10-17T15:44:44.582Z,101052.38
2022-10-17T15:46:48.710Z,101061.56
2022-10-17T15:48:52.828Z,101067.97
2022-10-17T15:50:57.163Z,101081.63
2022-10-17T15:53:01.227Z,101079.34
2022-10-17T15:55:05.509Z,101093.72
2022-10-17T15:57:17.575Z,101087.88
2022-10-17T15:59:27.279Z,101097.88
2022-10-17T16:01:32.905Z,101090.25
2022-10-17T16:03:36.447Z,101095.81
2022-10-17T16:05:39.899Z,101099.50
2022-10-17T16:07:43.713Z,101102.28
2022-10-17T16:09:47.293Z,101102.59
2022-10-17T16:11:51.489Z,101102.84
2022-10-17T16:13:57.269Z,101107.53
2022-10-17T16:16:02.287Z,101104.25
2022-10-17T16:18:07.392Z,101116.06
2022-10-17T16:20:14.723Z,101121.59
2022-10-17T16:22:22.427Z,101125.34
2022-10-17T16:24:26.519Z,101136.09
2022-10-17T16:26:30.661Z,101137.19
2022-10-17T16:28:34.685Z,101146.13
2022-10-17T16:30:45.151Z,101141.84
2022-10-17T16:32:50.670Z,101151.84
2022-10-17T16:34:54.307Z,101166.16
2022-10-17T16:36:58.257Z,101164.44
2022-10-17T16:39:02.269Z,101167.22
2022-10-17T16:41:06.075Z,101172.72
2022-10-17T16:43:12.095Z,101184.47
2022-10-17T16:45:18.701Z,101190.91
2022-10-17T16:47:22.449Z,101199.13
2022-10-17T16:49:27.484Z,101191.34
2022-10-17T16:51:31.647Z,101201.25
2022-10-17T16:53:35.488Z,101192.53
2022-10-17T16:55:38.964Z,101204.13
2022-10-17T16:57:45.737Z,101208.72
2022-10-17T16:59:49.276Z,101216.88
2022-10-17T17:01:53.160Z,101221.47
2022-10-17T17:03:57.063Z,101230.59
2022-10-17T17:06:02.024Z,101235.16
2022-10-17T17:08:08.011Z,101240.81
2022-10-17T17:10:15.515Z,101244.53
2022-10-17T17:12:18.953Z,101254.50
2022-10-17T17:14:22.490Z,101256.53
2022-10-17T17:16:28.215Z,101267.38
2022-10-17T17:18:32.051Z,101274.69
2022-10-17T17:20:36.113Z,101283.72
2022-10-17T17:22:41.206Z,101287.53
2022-10-17T17:24:44.759Z,101292.94
2022-10-17T17:26:52.635Z,101298.59
2022-10-17T17:28:58.566Z,101299.63
2022-10-17T17:31:02.902Z,101301.50
2022-10-17T17:33:06.636Z,101307.88
2022-10-17T17:35:11.074Z,101311.69
2022-10-17T17:37:15.028Z,101312.72
2022-10-17T17:39:19.831Z,101314.66
2022-10-17T17:41:24.191Z,101317.50
2022-10-17T17:43:28.281Z,101320.34
2022-10-17T17:45:31.927Z,101326.69
2022-10-17T17:47:35.603Z,101333.94
2022-10-17T17:49:39.200Z,101334.13
2022-10-17T17:51:46.447Z,101329.06
2022-10-17T17:53:50.496Z,101335.41
2022-10-17T17:56:04.561Z,101342.66
2022-10-17T17:58:08.524Z,101341.13
2022-10-17T18:00:13.232Z,101353.63
2022-10-17T18:02:17.150Z,101361.81
2022-10-17T18:04:21.299Z,101370.91
2022-10-17T18:06:25.817Z,101363.16
2022-10-17T18:08:30.413Z,101362.47
2022-10-17T18:10:34.145Z,101372.34
2022-10-17T18:12:39.411Z,101383.06
2022-10-17T18:14:43.012Z,101390.25
2022-10-17T18:16:46.570Z,101395.75
2022-10-17T18:18:50.155Z,101406.47
2022-10-17T18:20:54.717Z,101407.41
2022-10-17T18:23:00.612Z,101426.09
2022-10-17T18:25:07.802Z,101424.56
2022-10-17T18:27:12.956Z,101424.66
2022-10-17T18:29:18.109Z,101433.66
2022-10-17T18:31:25.177Z,101439.13
2022-10-17T18:33:28.704Z,101441.03
2022-10-17T18:35:32.807Z,101449.09
2022-10-17T18:37:36.600Z,101455.44
2022-10-17T18:39:40.371Z,101466.16
2022-10-17T18:41:44.143Z,101463.59
2022-10-17T18:43:49.262Z,101468.13
2022-10-17T18:45:58.565Z,101470.97
2022-10-17T18:48:02.349Z,101474.56
2022-10-17T18:50:06.651Z,101472.09
2022-10-17T18:52:10.526Z,101480.16
2022-10-17T18:54:17.449Z,101489.13
2022-10-17T18:56:22.245Z,101494.63
2022-10-17T18:58:25.872Z,101496.50
2022-10-17T19:00:30.528Z,101499.25
2022-10-17T19:02:38.098Z,101492.31
2022-10-17T19:04:42.006Z,101492.41
2022-10-17T19:06:45.932Z,101495.16
2022-10-17T19:08:50.199Z,101502.31
2022-10-17T19:10:54.219Z,101502.31
2022-10-17T19:12:57.994Z,101501.47
2022-10-17T19:15:01.766Z,101506.88
2022-10-17T19:17:05.443Z,101513.13
2022-10-17T19:19:14.592Z,101507.06
2022-10-17T19:21:21.789Z,101508.84
2022-10-17T19:23:26.244Z,101510.72
2022-10-17T19:25:30.702Z,101513.47
2022-10-17T19:27:34.464Z,101509.84
2022-10-17T19:29:38.234Z,101517.06
2022-10-17T19:31:42.503Z,101520.66
2022-10-17T19:33:46.313Z,101522.53
2022-10-17T19:35:58.246Z,101520.81
2022-10-17T19:38:02.196Z,101527.16
2022-10-17T19:40:07.277Z,101536.03
2022-10-17T19:42:11.461Z,101530.03
2022-10-17T19:44:15.725Z,101538.09
2022-10-17T19:46:21.046Z,101540.81
2022-10-17T19:48:25.782Z,101541.75
2022-10-17T19:50:29.325Z,101546.22
2022-10-17T19:52:34.445Z,101553.41
2022-10-17T19:54:39.722Z,101562.41
2022-10-17T19:56:43.645Z,101562.53
2022-10-17T19:58:47.752Z,101565.28
2022-10-17T20:00:52.937Z,101573.31
2022-10-17T20:02:56.853Z,101579.56
2022-10-17T20:05:17.449Z,101585.81
2022-10-17T20:07:22.199Z,101595.72
2022-10-17T20:09:27.264Z,101601.13
2022-10-17T20:11:31.106Z,101607.34
2022-10-17T20:13:36.901Z,101624.19
2022-10-17T20:15:41.319Z,101632.31
2022-10-17T20:17:44.939Z,101636.13
2022-10-17T20:19:48.918Z,101647.00
2022-10-17T20:21:52.740Z,101654.00
2022-10-17T20:23:57.257Z,101654.00
2022-10-17T20:26:13.624Z,101653.16
2022-10-17T20:28:28.799Z,101652.31
2022-10-17T20:30:32.929Z,101654.50
2022-10-17T20:32:39.620Z,101663.63
2022-10-17T20:34:43.409Z,101667.38
2022-10-17T20:36:47.663Z,101663.16
2022-10-17T20:38:54.734Z,101664.25
2022-10-17T20:41:03.392Z,101669.72
2022-10-17T20:43:08.412Z,101669.53
2022-10-17T20:45:13.192Z,101668.94
2022-10-17T20:47:33.165Z,101677.16
2022-10-17T20:49:40.438Z,101676.66
2022-10-17T20:51:44.194Z,101689.16
2022-10-17T20:53:48.123Z,101694.44
2022-10-17T20:56:04.746Z,101708.44
2022-10-17T20:58:08.475Z,101714.59
2022-10-17T21:00:13.238Z,101719.84
2022-10-17T21:02:17.061Z,101723.41
2022-10-17T21:04:45.243Z,101725.19
2022-10-17T21:06:44.623Z,101729.63
2022-10-17T21:08:49.253Z,101727.78
2022-10-17T21:10:53.145Z,101729.47
2022-10-17T21:12:59.945Z,101733.94
2022-10-17T21:15:04.215Z,101733.09
2022-10-17T21:17:08.014Z,101731.34
2022-10-17T21:19:13.149Z,101733.13
2022-10-17T21:21:18.983Z,101728.78
2022-10-17T21:23:22.743Z,101741.22
2022-10-17T21:25:26.649Z,101736.16
2022-10-17T21:27:32.770Z,101736.16
2022-10-17T21:29:37.979Z,101742.38
2022-10-17T21:31:43.718Z,101754.84
2022-10-17T21:33:49.043Z,101762.91
2022-10-17T21:35:56.454Z,101760.41
2022-10-17T21:38:00.182Z,101755.28
2022-10-17T21:40:03.930Z,101772.34
2022-10-17T21:42:07.630Z,101768.91
2022-10-17T21:44:15.351Z,101771.56
2022-10-17T21:46:21.363Z,101779.66
2022-10-17T21:48:25.005Z,101789.81
2022-10-17T21:50:28.801Z,101797.41
2022-10-17T21:52:32.749Z,101795.00
2022-10-17T21:54:36.579Z,101798.63
2022-10-17T21:56:40.216Z,101798.69
2022-10-17T21:58:44.283Z,101790.75
2022-10-17T22:00:47.963Z,101798.69
2022-10-17T22:02:53.004Z,101798.63
2022-10-17T22:04:56.647Z,101794.25
2022-10-17T22:07:00.162Z,101799.53
2022-10-17T22:09:04.083Z,101809.38
2022-10-17T22:11:10.362Z,101806.81
2022-10-17T22:13:14.248Z,101820.13
2022-10-17T22:15:17.965Z,101815.88
2022-10-17T22:17:21.687Z,101823.09
2022-10-17T22:19:28.201Z,101814.38
2022-10-17T22:21:32.014Z,101817.16
2022-10-17T22:23:36.228Z,101820.84
2022-10-17T22:25:40.098Z,101829.84
2022-10-17T22:27:43.656Z,101829.94
2022-10-17T22:29:47.339Z,101821.38
2022-10-17T22:31:50.927Z,101833.84
2022-10-17T22:33:54.493Z,101825.97
2022-10-17T22:35:59.790Z,101829.53
2022-10-17T22:38:03.510Z,101836.00
2022-10-17T22:40:08.522Z,101830.88
2022-10-17T22:42:12.327Z,101828.28
2022-10-17T22:44:15.985Z,101826.50
2022-10-17T22:46:19.516Z,101821.22
2022-10-17T22:48:23.420Z,101822.06
2022-10-17T22:50:27.286Z,101826.50
2022-10-17T22:52:32.402Z,101837.91
2022-10-17T22:54:36.166Z,101845.00
2022-10-17T22:56:39.800Z,101845.91
2022-10-17T22:58:43.663Z,101843.53
2022-10-17T23:00:47.249Z,101847.56
2022-10-17T23:02:55.283Z,101852.16
2022-10-17T23:04:58.841Z,101852.16
2022-10-17T23:07:02.478Z,101852.03
2022-10-17T23:09:07.380Z,101847.63
2022-10-17T23:11:11.203Z,101846.75
2022-10-17T23:13:15.439Z,101839.69
2022-10-17T23:15:19.470Z,101836.16
2022-10-17T23:17:22.994Z,101839.75
2022-10-17T23:19:26.694Z,101839.78
2022-10-17T23:21:30.126Z,101837.16
2022-10-17T23:23:33.945Z,101840.84
2022-10-17T23:25:39.051Z,101846.13
2022-10-17T23:27:42.538Z,101845.28
2022-10-17T23:29:46.118Z,101854.13
2022-10-17T23:31:50.336Z,101853.25
2022-10-17T23:33:53.824Z,101849.03
2022-10-17T23:35:57.402Z,101855.28
2022-10-17T23:38:01.258Z,101849.25
2022-10-17T23:40:05.588Z,101858.16
2022-10-17T23:42:10.551Z,101850.41
2022-10-17T23:44:14.156Z,101858.53
2022-10-17T23:46:17.636Z,101864.78
2022-10-17T23:48:21.318Z,101863.13
2022-10-17T23:50:24.898Z,101858.88
2022-10-17T23:52:28.341Z,101852.00
2022-10-17T23:54:32.114Z,101852.97
2022-10-17T23:56:35.803Z,101859.22
2022-10-17T23:58:42.151Z,101872.41
